Accueil
METAR-TAF:

METAR-TAF

Aéroports :

Aéroport d'Istanbul-Atatürk

Istanbul Atatürk, Turquie

latitude: 40-58N, longitude: 028-49E, altitude: 48 m

Observation

Le bulletin a été fait il y a 36 minutes, à 18:20 UTC
Vent 14 kt de nord-est
Température 25°C
Humidité 69%
Pression 1015 hPa
Visibilité 10 km ou plus
pas de nuages en-dessous de 1500 mètres et pas de cumulonimbus.

METAR: LTBA 201820Z 04014KT CAVOK 25/19 Q1015 RMK RWY23 05012KT

Heure: 21:56 (18:56 UTC)

Prévision

Le bulletin a été fait il y a 2 heures et 16 minutes, à 16:40 UTC
Prévision valable du 20 à 18 UTC au 21 à 18 UTC
Vent 10 kt de nord-est
Visibilité 10 km ou plus
pas de nuages en-dessous de 1500 mètres et pas de cumulonimbus.
Evoluant progressivement
du 21 à 06 UTC au 21 à 09 UTC
Vent 18 kt de nord-est avec des rafales jusqu'à 28 kt
Nuages épars à une hauteur de 1800 ft

TAF: LTBA 201640Z 2018/2118 04010KT CAVOK BECMG 2106/2109 04018G28KT SCT018

Observations et prévisions météorologiques de plus de 4000 aéroports (messages METAR et TAF).

Les stations disponibles sont représentées par des disques jaunes et rouges sur la carte.

Passer la souris dessus pour voir le nom de la station.

Cliquer dessus pour voir les observations et prévisions météorologiques.

Pour changer de carte: cliquez sur les boutons verts avec une croix noire pour zoomer, sur le bouton vert avec un tiret pour effectuer un zoom arrière, ou sur les flèches vertes pour les cartes adjacentes.


METAR-TAF: